createdAt,value
2023-05-17T00:02:24.676Z,13.43
2023-05-17T00:04:54.299Z,13.37
2023-05-17T00:07:22.210Z,13.40
2023-05-17T00:09:50.084Z,13.40
2023-05-17T00:12:17.874Z,13.28
2023-05-17T00:14:47.033Z,13.17
2023-05-17T00:17:14.897Z,13.09
2023-05-17T00:19:42.793Z,13.16
2023-05-17T00:22:10.555Z,13.19
2023-05-17T00:24:38.408Z,13.20
2023-05-17T00:27:06.703Z,13.22
2023-05-17T00:29:35.197Z,13.11
2023-05-17T00:32:04.704Z,13.09
2023-05-17T00:34:32.574Z,13.03
2023-05-17T00:37:00.445Z,12.97
2023-05-17T00:39:28.301Z,13.06
2023-05-17T00:41:56.521Z,13.14
2023-05-17T00:44:24.366Z,13.06
2023-05-17T00:46:52.115Z,13.15
2023-05-17T00:49:21.292Z,13.24
2023-05-17T00:51:49.685Z,13.24
2023-05-17T00:54:17.581Z,13.28
2023-05-17T00:56:45.959Z,13.23
2023-05-17T00:59:14.747Z,13.21
2023-05-17T01:01:44.072Z,13.27
2023-05-17T01:04:13.625Z,13.21
2023-05-17T01:06:43.054Z,13.20
2023-05-17T01:09:11.084Z,13.23
2023-05-17T01:11:49.604Z,13.28
2023-05-17T01:14:34.579Z,13.30
2023-05-17T01:17:05.439Z,13.31
2023-05-17T01:19:52.862Z,13.23
2023-05-17T01:22:33.976Z,13.21
2023-05-17T01:25:11.973Z,13.21
2023-05-17T01:27:44.028Z,13.21
2023-05-17T01:30:18.178Z,13.23
2023-05-17T01:32:48.242Z,13.22
2023-05-17T01:35:17.452Z,13.18
2023-05-17T01:37:45.550Z,13.20
2023-05-17T01:40:17.158Z,13.19
2023-05-17T01:42:49.908Z,13.10
2023-05-17T01:45:28.353Z,13.04
2023-05-17T01:48:14.641Z,12.97
2023-05-17T01:50:50.168Z,12.97
2023-05-17T01:53:22.096Z,13.06
2023-05-17T01:55:54.067Z,13.11
2023-05-17T01:58:27.520Z,13.09
2023-05-17T02:00:57.842Z,13.14
2023-05-17T02:03:26.100Z,13.12
2023-05-17T02:05:54.178Z,13.15
2023-05-17T02:08:22.217Z,13.15
2023-05-17T02:10:50.136Z,13.01
2023-05-17T02:13:18.042Z,13.01
2023-05-17T02:15:47.415Z,12.99
2023-05-17T02:18:15.345Z,12.87
2023-05-17T02:20:43.544Z,12.85
2023-05-17T02:23:11.712Z,12.88
2023-05-17T02:25:39.784Z,12.86
2023-05-17T02:28:07.596Z,12.94
2023-05-17T02:30:36.776Z,12.93
2023-05-17T02:33:06.325Z,12.93
2023-05-17T02:35:34.560Z,12.98
2023-05-17T02:38:02.716Z,12.99
2023-05-17T02:40:30.910Z,13.00
2023-05-17T02:42:58.736Z,12.96
2023-05-17T02:45:27.458Z,12.99
2023-05-17T02:47:55.795Z,13.02
2023-05-17T02:50:25.128Z,13.06
2023-05-17T02:52:53.115Z,13.03
2023-05-17T02:55:21.644Z,13.09
2023-05-17T02:57:49.507Z,13.10
2023-05-17T03:00:18.537Z,13.06
2023-05-17T03:02:46.557Z,13.06
2023-05-17T03:05:14.555Z,13.02
2023-05-17T03:07:49.125Z,12.98
2023-05-17T03:10:17.354Z,12.93
2023-05-17T03:12:46.934Z,12.86
2023-05-17T03:15:17.969Z,12.77
2023-05-17T03:17:46.324Z,12.55
2023-05-17T03:20:14.470Z,12.66
2023-05-17T03:22:42.327Z,12.61
2023-05-17T03:25:12.037Z,12.69
2023-05-17T03:27:39.975Z,12.59
2023-05-17T03:30:08.993Z,12.56
2023-05-17T03:32:40.498Z,12.55
2023-05-17T03:35:09.733Z,12.61
2023-05-17T03:37:38.909Z,12.57
2023-05-17T03:40:08.564Z,12.56
2023-05-17T03:42:38.604Z,12.33
2023-05-17T03:45:08.141Z,12.44
2023-05-17T03:47:36.982Z,12.48
2023-05-17T03:50:05.915Z,12.45
2023-05-17T03:52:34.247Z,12.45
2023-05-17T03:55:02.211Z,12.30
2023-05-17T03:57:31.757Z,12.32
2023-05-17T04:00:01.096Z,12.34
2023-05-17T04:02:29.147Z,12.35
2023-05-17T04:04:57.062Z,12.33
2023-05-17T04:07:25.401Z,12.28
2023-05-17T04:09:53.414Z,12.29
2023-05-17T04:12:21.318Z,12.27
2023-05-17T04:14:49.082Z,12.29
2023-05-17T04:17:18.302Z,12.30
2023-05-17T04:19:47.624Z,12.31
2023-05-17T04:22:15.699Z,12.26
2023-05-17T04:24:43.939Z,12.32
2023-05-17T04:27:12.190Z,12.30
2023-05-17T04:29:40.899Z,12.27
2023-05-17T04:32:09.981Z,12.23
2023-05-17T04:34:41.018Z,12.16
2023-05-17T04:37:10.324Z,12.18
2023-05-17T04:39:38.752Z,12.23
2023-05-17T04:42:06.736Z,12.33
2023-05-17T04:44:38.227Z,12.35
2023-05-17T04:47:06.620Z,12.46
2023-05-17T04:49:34.611Z,12.48
2023-05-17T04:52:06.346Z,12.51
2023-05-17T04:54:35.732Z,12.57
2023-05-17T04:57:03.665Z,12.53
2023-05-17T04:59:51.947Z,12.54
2023-05-17T05:02:20.094Z,12.46
2023-05-17T05:04:48.182Z,12.38
2023-05-17T05:07:17.472Z,12.29
2023-05-17T05:09:46.746Z,12.29
2023-05-17T05:12:16.422Z,12.39
2023-05-17T05:14:44.542Z,12.46
2023-05-17T05:17:12.545Z,12.47
2023-05-17T05:19:42.165Z,12.46
2023-05-17T05:22:11.391Z,12.47
2023-05-17T05:24:41.916Z,12.52
2023-05-17T05:27:10.208Z,12.49
2023-05-17T05:29:39.112Z,12.45
2023-05-17T05:32:08.391Z,12.45
2023-05-17T05:34:41.712Z,12.46
2023-05-17T05:37:09.785Z,12.51
2023-05-17T05:39:38.128Z,12.39
2023-05-17T05:42:07.985Z,12.25
2023-05-17T05:44:35.992Z,12.22
2023-05-17T05:47:06.194Z,12.34
2023-05-17T05:49:34.121Z,12.42
2023-05-17T05:52:02.045Z,12.49
2023-05-17T05:54:31.447Z,12.53
2023-05-17T05:57:00.842Z,12.59
2023-05-17T05:59:30.589Z,12.67
2023-05-17T06:01:59.865Z,12.68
2023-05-17T06:04:40.797Z,12.77
2023-05-17T06:07:13.258Z,12.66
2023-05-17T06:09:41.205Z,12.62
2023-05-17T06:12:09.297Z,12.69
2023-05-17T06:14:38.674Z,12.76
2023-05-17T06:17:06.756Z,12.76
2023-05-17T06:19:34.829Z,12.69
2023-05-17T06:22:02.851Z,12.69
2023-05-17T06:24:30.960Z,12.60
2023-05-17T06:26:58.918Z,12.58
2023-05-17T06:29:26.751Z,12.60
2023-05-17T06:31:58.131Z,12.65
2023-05-17T06:34:26.334Z,12.72
2023-05-17T06:36:54.152Z,12.73
2023-05-17T06:39:22.140Z,12.77
2023-05-17T06:41:50.063Z,12.71
2023-05-17T06:44:18.893Z,12.78
2023-05-17T06:46:46.845Z,12.82
2023-05-17T06:49:16.239Z,12.53
2023-05-17T06:51:44.088Z,12.56
2023-05-17T06:54:12.029Z,12.65
2023-05-17T06:56:39.912Z,12.41
2023-05-17T06:59:07.887Z,12.47
2023-05-17T07:01:36.194Z,12.52
2023-05-17T07:04:04.403Z,12.54
2023-05-17T07:06:34.589Z,12.48
2023-05-17T07:09:02.561Z,12.45
2023-05-17T07:11:32.942Z,12.42
2023-05-17T07:14:00.730Z,12.57
2023-05-17T07:16:28.802Z,12.62
2023-05-17T07:18:56.886Z,12.69
2023-05-17T07:21:24.829Z,12.74
2023-05-17T07:23:53.986Z,12.81
2023-05-17T07:26:22.600Z,12.75
2023-05-17T07:28:50.531Z,12.89
2023-05-17T07:31:19.086Z,12.85
2023-05-17T07:33:48.170Z,12.85
2023-05-17T07:36:15.992Z,12.87
2023-05-17T07:38:44.030Z,12.92
2023-05-17T07:41:16.833Z,12.98
2023-05-17T07:43:44.625Z,13.05
2023-05-17T07:46:12.647Z,13.06
2023-05-17T07:48:40.683Z,13.05
2023-05-17T07:51:08.861Z,13.00
2023-05-17T07:53:36.674Z,13.02
2023-05-17T07:56:07.020Z,12.85
2023-05-17T07:58:36.350Z,12.99
2023-05-17T08:01:04.225Z,13.06
2023-05-17T08:03:32.083Z,13.14
2023-05-17T08:05:59.990Z,13.22
2023-05-17T08:08:28.037Z,13.31
2023-05-17T08:10:56.084Z,13.41
2023-05-17T08:13:24.545Z,12.96
2023-05-17T08:16:01.428Z,12.76
2023-05-17T08:18:38.334Z,12.74
2023-05-17T08:21:06.284Z,12.81
2023-05-17T08:23:34.249Z,12.78
2023-05-17T08:26:02.296Z,12.94
2023-05-17T08:28:31.977Z,12.82
2023-05-17T08:31:01.303Z,12.91
2023-05-17T08:33:29.150Z,12.93
2023-05-17T08:36:00.041Z,13.03
2023-05-17T08:38:28.065Z,13.16
2023-05-17T08:40:57.062Z,13.09
2023-05-17T08:43:27.796Z,13.25
2023-05-17T08:45:57.806Z,13.15
2023-05-17T08:48:31.324Z,13.10
2023-05-17T08:51:01.538Z,13.06
2023-05-17T08:53:30.417Z,13.11
2023-05-17T08:56:00.498Z,13.05
2023-05-17T08:58:41.135Z,13.06
2023-05-17T09:01:21.694Z,13.02
2023-05-17T09:03:52.057Z,13.14
2023-05-17T09:06:22.811Z,13.28
2023-05-17T09:08:52.645Z,13.23
2023-05-17T09:11:27.963Z,13.43
2023-05-17T09:14:00.263Z,13.41
2023-05-17T09:16:30.051Z,13.33
2023-05-17T09:19:00.369Z,13.33
2023-05-17T09:21:29.749Z,13.49
2023-05-17T09:24:06.215Z,13.52
2023-05-17T09:26:41.595Z,13.38
2023-05-17T09:29:09.936Z,13.52
2023-05-17T09:31:37.731Z,13.34
2023-05-17T09:34:08.290Z,13.39
2023-05-17T09:36:38.005Z,13.36
2023-05-17T09:39:10.601Z,13.30
2023-05-17T09:41:43.700Z,13.11
2023-05-17T09:44:13.173Z,13.21
2023-05-17T09:46:43.341Z,13.27
2023-05-17T09:49:13.958Z,13.36
2023-05-17T09:51:43.779Z,13.47
2023-05-17T09:54:12.242Z,13.46
2023-05-17T09:56:40.555Z,13.32
2023-05-17T09:59:13.341Z,13.38
2023-05-17T10:01:42.259Z,13.41
2023-05-17T10:04:12.754Z,13.36
2023-05-17T10:06:48.523Z,13.29
2023-05-17T10:09:22.809Z,13.29
2023-05-17T10:11:54.121Z,13.40
2023-05-17T10:14:27.426Z,13.49
2023-05-17T10:16:56.515Z,13.72
2023-05-17T10:19:27.338Z,13.62
2023-05-17T10:22:05.215Z,13.77
2023-05-17T10:24:39.253Z,13.77
2023-05-17T10:27:08.293Z,13.68
2023-05-17T10:29:37.386Z,13.68
2023-05-17T10:32:08.078Z,13.80
2023-05-17T10:34:39.526Z,13.86
2023-05-17T10:37:08.943Z,13.93
2023-05-17T10:39:39.109Z,13.88
2023-05-17T10:44:41.322Z,13.57
2023-05-17T10:47:10.008Z,13.57
2023-05-17T10:49:41.644Z,13.47
2023-05-17T10:52:13.870Z,13.47
2023-05-17T10:54:43.626Z,13.51
2023-05-17T10:57:20.957Z,13.77
2023-05-17T10:59:59.883Z,13.95
2023-05-17T11:02:29.491Z,13.99
2023-05-17T11:05:00.504Z,13.91
2023-05-17T11:07:32.367Z,13.95
2023-05-17T11:10:14.275Z,14.06
2023-05-17T11:12:44.128Z,13.89
2023-05-17T11:15:14.282Z,13.82
2023-05-17T11:17:54.115Z,13.90
2023-05-17T11:20:35.045Z,13.85
2023-05-17T11:23:05.358Z,13.77
2023-05-17T11:25:36.243Z,13.84
2023-05-17T11:28:08.839Z,13.90
2023-05-17T11:30:42.168Z,14.03
2023-05-17T11:33:17.302Z,14.17
2023-05-17T11:35:55.729Z,14.29
2023-05-17T11:38:24.633Z,14.38
2023-05-17T11:40:55.311Z,14.33
2023-05-17T11:43:25.485Z,14.16
2023-05-17T11:45:57.593Z,14.40
2023-05-17T11:48:28.122Z,14.40
2023-05-17T11:51:00.015Z,14.43
2023-05-17T11:53:32.650Z,14.38
2023-05-17T11:56:04.284Z,14.40
2023-05-17T11:58:33.315Z,14.49
2023-05-17T12:01:01.142Z,14.52
2023-05-17T12:03:30.275Z,14.54
2023-05-17T12:06:10.492Z,14.59
2023-05-17T12:08:40.152Z,14.60
2023-05-17T12:11:09.031Z,14.77
2023-05-17T12:13:37.098Z,14.58
2023-05-17T12:16:10.405Z,14.39
2023-05-17T12:18:39.240Z,14.44
2023-05-17T12:21:11.416Z,14.65
2023-05-17T12:23:41.145Z,14.71
2023-05-17T12:26:10.837Z,14.86
2023-05-17T12:28:40.283Z,14.87
2023-05-17T12:31:11.099Z,14.87
2023-05-17T12:33:41.406Z,14.71
2023-05-17T12:36:12.760Z,14.71
2023-05-17T12:38:42.307Z,14.75
2023-05-17T12:41:12.892Z,14.71
2023-05-17T12:43:41.639Z,14.61
2023-05-17T12:46:11.515Z,14.74
2023-05-17T12:48:41.136Z,14.79
2023-05-17T12:51:14.676Z,14.82
2023-05-17T12:53:44.091Z,14.91
2023-05-17T12:56:17.350Z,15.06
2023-05-17T12:58:45.259Z,15.27
2023-05-17T13:01:14.602Z,15.55
2023-05-17T13:03:43.097Z,15.63
2023-05-17T13:06:11.310Z,15.46
2023-05-17T13:08:43.512Z,15.43
2023-05-17T13:11:13.646Z,15.60
2023-05-17T13:13:42.088Z,15.60
2023-05-17T13:16:10.060Z,15.54
2023-05-17T13:18:55.653Z,15.71
2023-05-17T13:21:24.497Z,15.68
2023-05-17T13:23:53.711Z,15.62
2023-05-17T13:26:22.491Z,15.43
2023-05-17T13:28:51.267Z,15.32
2023-05-17T13:31:19.341Z,15.31
2023-05-17T13:33:50.007Z,15.45
2023-05-17T13:36:18.015Z,15.42
2023-05-17T13:38:45.996Z,15.34
2023-05-17T13:41:15.722Z,15.26
2023-05-17T13:43:43.535Z,15.11
2023-05-17T13:46:11.869Z,15.13
2023-05-17T13:48:41.988Z,15.12
2023-05-17T13:51:11.174Z,14.95
2023-05-17T13:53:39.566Z,15.03
2023-05-17T13:56:08.114Z,14.76
2023-05-17T13:58:37.329Z,14.78
2023-05-17T14:01:06.633Z,14.60
2023-05-17T14:03:34.827Z,14.62
2023-05-17T14:06:04.827Z,14.58
2023-05-17T14:08:33.378Z,14.61
2023-05-17T14:11:01.287Z,14.66
2023-05-17T14:13:29.856Z,14.60
2023-05-17T14:15:59.319Z,14.69
2023-05-17T14:18:27.258Z,14.60
2023-05-17T14:20:55.580Z,14.62
2023-05-17T14:23:23.700Z,14.63
2023-05-17T14:25:51.939Z,14.62
2023-05-17T14:28:20.205Z,14.70
2023-05-17T14:30:48.950Z,14.70
2023-05-17T14:33:18.833Z,14.96
2023-05-17T14:35:47.830Z,15.21
2023-05-17T14:38:16.101Z,15.27
2023-05-17T14:40:44.442Z,15.10
2023-05-17T14:43:12.615Z,15.33
2023-05-17T14:45:40.849Z,15.28
2023-05-17T14:48:09.118Z,15.31
2023-05-17T14:50:38.645Z,15.30
2023-05-17T14:53:06.577Z,15.31
2023-05-17T14:55:35.084Z,15.37
2023-05-17T14:58:03.374Z,15.37
2023-05-17T15:00:31.696Z,15.29
2023-05-17T15:02:59.655Z,15.19
2023-05-17T15:05:29.009Z,14.94
2023-05-17T15:07:58.706Z,14.99
2023-05-17T15:10:26.698Z,15.03
2023-05-17T15:12:54.745Z,15.00
2023-05-17T15:15:22.966Z,15.09
2023-05-17T15:17:51.899Z,15.20
2023-05-17T15:20:20.689Z,14.96
2023-05-17T15:22:49.550Z,14.91
2023-05-17T15:25:19.480Z,14.78
2023-05-17T15:27:49.158Z,14.72
2023-05-17T15:30:17.432Z,14.64
2023-05-17T15:32:46.129Z,14.74
2023-05-17T15:35:14.393Z,14.72
2023-05-17T15:37:42.585Z,14.83
2023-05-17T15:40:12.162Z,15.11
2023-05-17T15:42:41.804Z,15.19
2023-05-17T15:45:11.267Z,15.42
2023-05-17T15:47:43.464Z,15.57
2023-05-17T15:50:12.372Z,15.62
2023-05-17T15:52:40.437Z,15.60
2023-05-17T15:55:09.708Z,15.67
2023-05-17T15:57:37.749Z,15.64
2023-05-17T16:00:08.905Z,15.52
2023-05-17T16:02:36.898Z,15.48
2023-05-17T16:05:05.353Z,15.30
2023-05-17T16:07:33.117Z,15.35
2023-05-17T16:10:01.036Z,15.35
2023-05-17T16:12:28.968Z,15.10
2023-05-17T16:14:57.233Z,14.95
2023-05-17T16:17:26.426Z,14.93
2023-05-17T16:19:54.550Z,14.81
2023-05-17T16:22:22.732Z,14.81
2023-05-17T16:24:53.917Z,14.84
2023-05-17T16:27:23.060Z,14.83
2023-05-17T16:29:50.904Z,14.79
2023-05-17T16:32:19.098Z,14.71
2023-05-17T16:34:48.608Z,14.69
2023-05-17T16:37:16.571Z,14.80
2023-05-17T16:39:44.348Z,14.91
2023-05-17T16:42:12.146Z,14.93
2023-05-17T16:44:40.090Z,15.01
2023-05-17T16:47:08.027Z,14.93
2023-05-17T16:49:36.737Z,14.99
2023-05-17T16:52:06.922Z,14.93
2023-05-17T16:54:35.435Z,14.89
2023-05-17T16:57:07.166Z,14.92
2023-05-17T16:59:36.173Z,15.04
2023-05-17T17:02:04.628Z,15.08
2023-05-17T17:04:32.860Z,14.91
2023-05-17T17:07:01.040Z,15.01
2023-05-17T17:09:30.310Z,15.14
2023-05-17T17:11:58.249Z,15.22
2023-05-17T17:14:26.169Z,15.19
2023-05-17T17:16:53.902Z,15.03
2023-05-17T17:19:21.823Z,14.99
2023-05-17T17:21:49.849Z,15.09
2023-05-17T17:24:18.793Z,15.09
2023-05-17T17:26:49.962Z,15.23
2023-05-17T17:29:17.798Z,15.34
2023-05-17T17:31:45.597Z,15.42
2023-05-17T17:34:13.454Z,15.45
2023-05-17T17:36:41.401Z,15.48
2023-05-17T17:39:10.293Z,15.53
2023-05-17T17:41:38.082Z,15.38
2023-05-17T17:44:07.387Z,15.35
2023-05-17T17:46:35.175Z,15.18
2023-05-17T17:49:03.139Z,15.16
2023-05-17T17:51:31.220Z,14.93
2023-05-17T17:53:59.018Z,14.84
2023-05-17T17:56:27.342Z,14.87
2023-05-17T17:58:56.095Z,14.89
2023-05-17T18:01:25.592Z,14.84
2023-05-17T18:03:53.584Z,14.92
2023-05-17T18:06:21.371Z,14.76
2023-05-17T18:08:49.185Z,14.79
2023-05-17T18:11:17.197Z,14.83
2023-05-17T18:13:45.121Z,14.82
2023-05-17T18:16:12.944Z,14.83
2023-05-17T18:18:42.166Z,14.86
2023-05-17T18:21:10.581Z,14.88
2023-05-17T18:23:38.521Z,14.80
2023-05-17T18:26:06.772Z,14.80
2023-05-17T18:28:42.266Z,14.87
2023-05-17T18:31:10.879Z,14.77
2023-05-17T18:33:39.197Z,14.83
2023-05-17T18:36:09.712Z,14.72
2023-05-17T18:38:37.602Z,14.69
2023-05-17T18:41:05.525Z,14.67
2023-05-17T18:43:33.551Z,14.64
2023-05-17T18:46:01.437Z,14.61
2023-05-17T18:48:29.312Z,14.65
2023-05-17T18:50:57.589Z,14.60
2023-05-17T18:53:27.032Z,14.51
2023-05-17T18:55:55.577Z,14.59
2023-05-17T18:58:23.405Z,14.56
2023-05-17T19:00:51.359Z,14.57
2023-05-17T19:03:19.244Z,14.56
2023-05-17T19:05:47.257Z,14.60
2023-05-17T19:08:15.701Z,14.57
2023-05-17T19:10:45.712Z,14.64
2023-05-17T19:13:13.827Z,14.67
2023-05-17T19:15:42.155Z,14.67
2023-05-17T19:18:10.059Z,14.63
2023-05-17T19:20:38.173Z,14.63
2023-05-17T19:23:06.809Z,14.67
2023-05-17T19:25:34.700Z,14.74
2023-05-17T19:28:04.065Z,14.71
2023-05-17T19:30:33.073Z,14.77
2023-05-17T19:33:01.734Z,14.82
2023-05-17T19:35:29.888Z,14.83
2023-05-17T19:37:58.421Z,14.83
2023-05-17T19:40:26.381Z,14.81
2023-05-17T19:42:54.317Z,14.75
2023-05-17T19:45:23.830Z,14.76
2023-05-17T19:47:53.474Z,14.76
2023-05-17T19:50:21.724Z,14.82
2023-05-17T19:52:49.856Z,14.81
2023-05-17T19:55:22.144Z,14.75
2023-05-17T19:57:50.322Z,14.75
2023-05-17T20:00:18.882Z,14.74
2023-05-17T20:02:48.186Z,14.72
2023-05-17T20:05:17.160Z,14.67
2023-05-17T20:07:45.057Z,14.71
2023-05-17T20:10:16.162Z,14.68
2023-05-17T20:12:44.145Z,14.67
2023-05-17T20:15:13.464Z,14.64
2023-05-17T20:17:41.373Z,14.64
2023-05-17T20:20:11.501Z,14.60
2023-05-17T20:22:41.053Z,14.62
2023-05-17T20:25:09.030Z,14.63
2023-05-17T20:27:36.893Z,14.60
2023-05-17T20:30:06.194Z,14.54
2023-05-17T20:32:34.454Z,14.58
2023-05-17T20:35:02.777Z,14.66
2023-05-17T20:37:32.165Z,14.64
2023-05-17T20:40:00.334Z,14.67
2023-05-17T20:42:28.922Z,14.69
2023-05-17T20:44:57.785Z,14.67
2023-05-17T20:47:26.252Z,14.72
2023-05-17T20:49:54.143Z,14.71
2023-05-17T20:52:38.015Z,14.68
2023-05-17T20:55:12.654Z,14.69
2023-05-17T20:57:40.560Z,14.70
2023-05-17T21:00:11.862Z,14.68
2023-05-17T21:02:40.087Z,14.64
2023-05-17T21:05:09.180Z,14.62
2023-05-17T21:07:39.185Z,14.63
2023-05-17T21:10:08.122Z,14.57
2023-05-17T21:12:37.504Z,14.55
2023-05-17T21:15:16.494Z,14.56
2023-05-17T21:17:53.770Z,14.42
2023-05-17T21:20:23.088Z,14.46
2023-05-17T21:22:52.514Z,14.45
2023-05-17T21:25:20.600Z,14.47
2023-05-17T21:27:49.833Z,14.49
2023-05-17T21:30:17.974Z,14.48
2023-05-17T21:32:46.036Z,14.46
2023-05-17T21:35:13.868Z,14.47
2023-05-17T21:37:42.223Z,14.45
2023-05-17T21:40:10.946Z,14.46
2023-05-17T21:42:38.914Z,14.44
2023-05-17T21:45:09.482Z,14.38
2023-05-17T21:47:37.364Z,14.42
2023-05-17T21:50:05.885Z,14.40
2023-05-17T21:52:33.748Z,14.37
2023-05-17T21:55:01.775Z,14.40
2023-05-17T21:57:29.661Z,14.48
2023-05-17T21:59:57.800Z,14.48
2023-05-17T22:02:27.380Z,14.50
2023-05-17T22:04:56.925Z,14.47
2023-05-17T22:07:25.288Z,14.47
2023-05-17T22:09:54.690Z,14.58
2023-05-17T22:12:26.337Z,14.57
2023-05-17T22:14:55.880Z,14.61
2023-05-17T22:17:35.110Z,14.58
2023-05-17T22:20:14.360Z,14.54
2023-05-17T22:22:42.211Z,14.48
2023-05-17T22:25:11.594Z,14.49
2023-05-17T22:27:39.478Z,14.46
2023-05-17T22:30:09.336Z,14.43
2023-05-17T22:32:38.274Z,14.44
2023-05-17T22:35:07.362Z,14.43
2023-05-17T22:37:37.707Z,14.36
2023-05-17T22:40:08.394Z,14.30
2023-05-17T22:42:40.399Z,14.29
2023-05-17T22:45:09.576Z,14.24
2023-05-17T22:47:38.746Z,14.27
2023-05-17T22:50:08.652Z,14.26
2023-05-17T22:52:41.250Z,14.22
2023-05-17T22:55:10.756Z,14.28
2023-05-17T22:57:39.447Z,14.25
2023-05-17T23:00:09.506Z,14.24
2023-05-17T23:02:37.758Z,14.26
2023-05-17T23:05:07.893Z,14.25
2023-05-17T23:07:38.456Z,14.26
2023-05-17T23:10:09.299Z,14.26
2023-05-17T23:12:38.774Z,14.28
2023-05-17T23:15:10.177Z,14.15
2023-05-17T23:17:42.713Z,14.22
2023-05-17T23:20:12.127Z,14.17
2023-05-17T23:22:41.460Z,14.15
2023-05-17T23:25:10.192Z,14.14
2023-05-17T23:27:38.028Z,14.13
2023-05-17T23:30:07.597Z,14.14
2023-05-17T23:32:35.551Z,14.11
2023-05-17T23:35:04.767Z,14.03
2023-05-17T23:37:33.649Z,14.05
2023-05-17T23:40:04.830Z,14.04
2023-05-17T23:42:32.888Z,14.03
2023-05-17T23:45:01.093Z,14.09
2023-05-17T23:47:29.549Z,14.10
2023-05-17T23:49:57.911Z,14.10
2023-05-17T23:52:26.590Z,14.06
2023-05-17T23:54:57.374Z,13.96
2023-05-17T23:57:26.601Z,13.92
2023-05-17T23:59:54.480Z,13.99
